createdAt,value
2022-09-15T00:00:29.120Z,18.70
2022-09-15T00:02:55.932Z,18.71
2022-09-15T00:05:22.497Z,18.75
2022-09-15T00:07:48.950Z,18.74
2022-09-15T00:10:15.491Z,18.73
2022-09-15T00:12:42.025Z,18.74
2022-09-15T00:15:08.877Z,18.70
2022-09-15T00:17:35.316Z,18.74
2022-09-15T00:20:02.042Z,18.72
2022-09-15T00:22:28.424Z,18.73
2022-09-15T00:24:54.837Z,18.68
2022-09-15T00:27:21.206Z,18.66
2022-09-15T00:29:47.571Z,18.66
2022-09-15T00:32:13.965Z,18.63
2022-09-15T00:34:40.375Z,18.64
2022-09-15T00:37:07.129Z,18.63
2022-09-15T00:39:33.500Z,18.61
2022-09-15T00:41:59.877Z,18.61
2022-09-15T00:44:35.447Z,18.65
2022-09-15T00:47:18.828Z,18.67
2022-09-15T00:49:48.415Z,18.66
2022-09-15T00:52:40.790Z,18.66
2022-09-15T00:55:29.005Z,18.67
2022-09-15T00:58:07.034Z,18.66
2022-09-15T01:00:34.834Z,18.65
2022-09-15T01:03:02.267Z,18.65
2022-09-15T01:05:45.591Z,18.66
2022-09-15T01:08:22.104Z,18.66
2022-09-15T01:10:49.180Z,18.65
2022-09-15T01:13:15.585Z,18.63
2022-09-15T01:16:13.593Z,18.61
2022-09-15T01:19:04.983Z,18.59
2022-09-15T01:21:45.127Z,18.55
2022-09-15T01:24:33.481Z,18.54
2022-09-15T01:27:41.439Z,18.52
2022-09-15T01:30:15.300Z,18.50
2022-09-15T01:33:06.607Z,18.48
2022-09-15T01:36:05.431Z,18.44
2022-09-15T01:38:42.061Z,18.41
2022-09-15T01:41:11.504Z,18.40
2022-09-15T01:43:44.303Z,18.40
2022-09-15T01:46:12.054Z,18.41
2022-09-15T01:48:39.453Z,18.36
2022-09-15T01:51:07.003Z,18.38
2022-09-15T01:53:34.250Z,18.36
2022-09-15T01:56:09.939Z,18.35
2022-09-15T01:58:38.572Z,18.35
2022-09-15T02:01:11.368Z,18.35
2022-09-15T02:03:51.613Z,18.32
2022-09-15T02:06:49.581Z,18.30
2022-09-15T02:09:28.108Z,18.26
2022-09-15T02:12:03.376Z,18.28
2022-09-15T02:14:48.049Z,18.31
2022-09-15T02:17:18.920Z,18.31
2022-09-15T02:19:50.435Z,18.33
2022-09-15T02:22:30.630Z,18.33
2022-09-15T02:25:04.899Z,18.35
2022-09-15T02:27:37.797Z,18.35
2022-09-15T02:30:11.612Z,18.38
2022-09-15T02:32:46.598Z,18.38
2022-09-15T02:35:15.830Z,18.38
2022-09-15T02:37:43.199Z,18.37
2022-09-15T02:40:10.462Z,18.35
2022-09-15T02:42:37.044Z,18.34
2022-09-15T02:45:04.400Z,18.33
2022-09-15T02:47:31.977Z,18.35
2022-09-15T02:49:58.542Z,18.39
2022-09-15T02:52:26.084Z,18.42
2022-09-15T02:54:52.472Z,18.43
2022-09-15T02:57:18.825Z,18.44
2022-09-15T03:00:03.817Z,18.44
2022-09-15T03:02:31.274Z,18.41
2022-09-15T03:04:57.722Z,18.41
2022-09-15T03:07:24.818Z,18.41
2022-09-15T03:09:51.169Z,18.43
2022-09-15T03:12:17.674Z,18.40
2022-09-15T03:14:44.412Z,18.39
2022-09-15T03:17:10.761Z,18.37
2022-09-15T03:19:37.268Z,18.36
2022-09-15T03:22:03.653Z,18.35
2022-09-15T03:24:30.077Z,18.36
2022-09-15T03:26:56.462Z,18.35
2022-09-15T03:29:23.003Z,18.34
2022-09-15T03:31:49.774Z,18.34
2022-09-15T03:34:16.318Z,18.33
2022-09-15T03:36:43.076Z,18.33
2022-09-15T03:39:11.824Z,18.33
2022-09-15T03:41:38.411Z,18.34
2022-09-15T03:44:04.782Z,18.34
2022-09-15T03:46:31.194Z,18.33
2022-09-15T03:48:57.565Z,18.33
2022-09-15T03:51:24.092Z,18.34
2022-09-15T03:53:50.518Z,18.31
2022-09-15T03:56:19.759Z,18.30
2022-09-15T03:58:46.092Z,18.29
2022-09-15T04:01:12.652Z,18.30
2022-09-15T04:03:45.284Z,18.30
2022-09-15T04:06:15.048Z,18.30
2022-09-15T04:08:41.855Z,18.32
2022-09-15T04:11:10.543Z,18.31
2022-09-15T04:13:38.629Z,18.33
2022-09-15T04:16:08.096Z,18.35
2022-09-15T04:18:35.678Z,18.37
2022-09-15T04:21:06.919Z,18.38
2022-09-15T04:23:33.819Z,18.39
2022-09-15T04:26:05.948Z,18.38
2022-09-15T04:28:34.402Z,18.39
2022-09-15T04:31:12.741Z,18.40
2022-09-15T04:33:40.689Z,18.39
2022-09-15T04:36:13.103Z,18.38
2022-09-15T04:38:39.554Z,18.37
2022-09-15T04:41:07.007Z,18.36
2022-09-15T04:43:33.792Z,18.36
2022-09-15T04:46:00.615Z,18.36
2022-09-15T04:48:27.819Z,18.37
2022-09-15T04:50:54.685Z,18.35
2022-09-15T04:53:21.400Z,18.37
2022-09-15T04:55:48.064Z,18.39
2022-09-15T04:58:14.404Z,18.40
2022-09-15T05:00:45.929Z,18.38
2022-09-15T05:03:13.979Z,18.36
2022-09-15T05:05:41.170Z,18.34
2022-09-15T05:08:08.084Z,18.33
2022-09-15T05:10:34.504Z,18.29
2022-09-15T05:13:00.865Z,18.29
2022-09-15T05:15:27.225Z,18.25
2022-09-15T05:17:53.631Z,18.25
2022-09-15T05:20:20.190Z,18.23
2022-09-15T05:22:46.620Z,18.22
2022-09-15T05:25:13.110Z,18.23
2022-09-15T05:27:39.724Z,18.26
2022-09-15T05:30:35.197Z,18.28
2022-09-15T05:32:53.829Z,18.27
2022-09-15T05:35:20.223Z,18.24
2022-09-15T05:37:46.604Z,18.21
2022-09-15T05:40:12.992Z,18.18
2022-09-15T05:42:40.459Z,18.14
2022-09-15T05:45:07.597Z,18.14
2022-09-15T05:47:34.099Z,18.15
2022-09-15T05:50:00.457Z,18.12
2022-09-15T05:52:26.848Z,18.12
2022-09-15T05:54:58.320Z,18.14
2022-09-15T05:57:25.526Z,18.16
2022-09-15T05:59:51.990Z,18.17
2022-09-15T06:02:18.400Z,18.20
2022-09-15T06:04:44.783Z,18.22
2022-09-15T06:07:11.200Z,18.29
2022-09-15T06:09:37.847Z,18.31
2022-09-15T06:12:04.294Z,18.34
2022-09-15T06:14:30.738Z,18.36
2022-09-15T06:16:57.182Z,18.36
2022-09-15T06:19:23.951Z,18.36
2022-09-15T06:21:52.421Z,18.35
2022-09-15T06:24:18.841Z,18.39
2022-09-15T06:26:45.570Z,18.41
2022-09-15T06:29:12.861Z,18.37
2022-09-15T06:31:39.585Z,18.29
2022-09-15T06:34:06.959Z,18.25
2022-09-15T06:36:34.007Z,18.18
2022-09-15T06:39:00.538Z,18.11
2022-09-15T06:41:38.155Z,18.01
2022-09-15T06:44:09.737Z,17.92
2022-09-15T06:46:36.396Z,17.91
2022-09-15T06:49:02.894Z,17.83
2022-09-15T06:51:36.867Z,17.82
2022-09-15T06:54:04.520Z,17.83
2022-09-15T06:56:34.583Z,17.77
2022-09-15T06:59:06.625Z,17.72
2022-09-15T07:01:33.652Z,17.71
2022-09-15T07:04:02.870Z,17.70
2022-09-15T07:06:31.438Z,17.69
2022-09-15T07:09:01.107Z,17.67
2022-09-15T07:11:27.987Z,17.65
2022-09-15T07:13:54.765Z,17.64
2022-09-15T07:16:23.333Z,17.65
2022-09-15T07:18:52.437Z,17.66
2022-09-15T07:21:20.329Z,17.66
2022-09-15T07:23:47.552Z,17.69
2022-09-15T07:26:23.991Z,17.69
2022-09-15T07:28:54.144Z,17.70
2022-09-15T07:31:25.076Z,17.70
2022-09-15T07:33:51.948Z,17.73
2022-09-15T07:36:19.395Z,17.77
2022-09-15T07:38:49.959Z,17.79
2022-09-15T07:41:21.663Z,17.85
2022-09-15T07:43:50.113Z,17.91
2022-09-15T07:46:18.382Z,17.95
2022-09-15T07:48:49.698Z,18.01
2022-09-15T07:51:17.594Z,18.05
2022-09-15T07:53:46.032Z,18.04
2022-09-15T07:56:13.356Z,18.06
2022-09-15T07:58:39.846Z,18.04
2022-09-15T08:01:11.529Z,18.08
2022-09-15T08:03:48.574Z,18.07
2022-09-15T08:06:17.224Z,18.09
2022-09-15T08:08:47.271Z,18.08
2022-09-15T08:11:19.744Z,18.10
2022-09-15T08:13:47.823Z,18.11
2022-09-15T08:16:16.959Z,18.14
2022-09-15T08:18:44.677Z,18.11
2022-09-15T08:21:15.818Z,18.12
2022-09-15T08:23:43.101Z,18.13
2022-09-15T08:26:14.326Z,18.11
2022-09-15T08:28:42.614Z,18.08
2022-09-15T08:31:11.676Z,18.07
2022-09-15T08:33:44.611Z,18.08
2022-09-15T08:36:12.782Z,18.06
2022-09-15T08:38:41.117Z,18.06
2022-09-15T08:41:13.821Z,18.05
2022-09-15T08:44:03.721Z,18.10
2022-09-15T08:46:38.553Z,18.17
2022-09-15T08:49:23.475Z,18.25
2022-09-15T08:52:03.398Z,18.26
2022-09-15T08:54:31.565Z,18.30
2022-09-15T08:56:58.805Z,18.31
2022-09-15T08:59:34.571Z,18.24
2022-09-15T09:02:15.006Z,18.28
2022-09-15T09:05:12.517Z,18.31
2022-09-15T09:08:14.708Z,18.34
2022-09-15T09:11:01.278Z,18.38
2022-09-15T09:13:41.328Z,18.43
2022-09-15T09:16:23.006Z,18.48
2022-09-15T09:19:16.352Z,18.45
2022-09-15T09:22:01.619Z,18.43
2022-09-15T09:24:39.932Z,18.40
2022-09-15T09:27:21.602Z,18.31
2022-09-15T09:29:55.457Z,18.30
2022-09-15T09:32:33.948Z,18.23
2022-09-15T09:35:35.123Z,18.20
2022-09-15T09:38:02.835Z,18.14
2022-09-15T09:40:34.908Z,18.08
2022-09-15T09:43:01.745Z,17.98
2022-09-15T09:45:30.222Z,17.93
2022-09-15T09:48:02.801Z,17.86
2022-09-15T09:50:35.013Z,17.79
2022-09-15T09:53:23.679Z,17.67
2022-09-15T09:55:50.219Z,17.56
2022-09-15T09:58:29.409Z,17.53
2022-09-15T10:01:14.384Z,17.44
2022-09-15T10:03:47.278Z,17.30
2022-09-15T10:06:17.030Z,17.21
2022-09-15T10:09:00.208Z,17.11
2022-09-15T10:11:44.602Z,17.00
2022-09-15T10:14:34.809Z,16.90
2022-09-15T10:17:11.765Z,16.76
2022-09-15T10:20:17.323Z,16.64
2022-09-15T10:22:47.200Z,16.56
2022-09-15T10:25:20.280Z,16.49
2022-09-15T10:28:21.772Z,16.47
2022-09-15T10:31:15.797Z,16.45
2022-09-15T10:33:53.246Z,16.41
2022-09-15T10:36:30.436Z,16.29
2022-09-15T10:39:18.699Z,16.11
2022-09-15T10:42:09.528Z,15.96
2022-09-15T10:44:52.266Z,15.89
2022-09-15T10:47:40.120Z,15.82
2022-09-15T10:50:25.993Z,15.77
2022-09-15T10:53:29.290Z,15.77
2022-09-15T10:56:35.283Z,15.58
2022-09-15T10:59:21.138Z,15.41
2022-09-15T11:02:23.009Z,15.33
2022-09-15T11:05:27.486Z,15.33
2022-09-15T11:08:19.117Z,15.38
2022-09-15T11:11:09.982Z,15.38
2022-09-15T11:13:59.643Z,15.39
2022-09-15T11:16:40.554Z,15.35
2022-09-15T11:19:41.078Z,15.27
2022-09-15T11:22:24.594Z,15.30
2022-09-15T11:24:56.516Z,15.30
2022-09-15T11:28:14.335Z,15.36
2022-09-15T11:31:13.958Z,15.50
2022-09-15T11:33:50.704Z,15.60
2022-09-15T11:36:32.844Z,15.64
2022-09-15T11:39:09.533Z,15.60
2022-09-15T11:41:45.204Z,15.51
2022-09-15T11:44:22.902Z,15.44
2022-09-15T11:47:27.852Z,15.41
2022-09-15T11:50:06.315Z,15.37
2022-09-15T11:53:16.720Z,15.41
2022-09-15T11:55:51.268Z,15.48
2022-09-15T11:58:24.838Z,15.52
2022-09-15T12:00:57.457Z,15.55
2022-09-15T12:03:37.348Z,15.53
2022-09-15T12:06:09.601Z,15.54
2022-09-15T12:08:38.031Z,15.60
2022-09-15T12:11:10.512Z,15.67
2022-09-15T12:13:37.580Z,15.65
2022-09-15T12:16:05.107Z,15.63
2022-09-15T12:18:41.741Z,15.67
2022-09-15T12:21:13.412Z,15.66
2022-09-15T12:23:59.045Z,15.64
2022-09-15T12:26:27.104Z,15.62
2022-09-15T12:28:56.160Z,15.73
2022-09-15T12:31:38.441Z,15.79
2022-09-15T12:34:36.947Z,15.73
2022-09-15T12:37:25.683Z,15.70
2022-09-15T12:39:54.376Z,15.77
2022-09-15T12:42:31.248Z,15.90
2022-09-15T12:45:02.982Z,16.01
2022-09-15T12:47:40.387Z,16.03
2022-09-15T12:50:16.093Z,16.08
2022-09-15T12:52:47.138Z,16.10
2022-09-15T12:55:23.984Z,16.17
2022-09-15T12:57:53.868Z,16.14
2022-09-15T13:00:20.301Z,16.16
2022-09-15T13:02:49.231Z,16.25
2022-09-15T13:05:46.672Z,16.26
2022-09-15T13:08:34.569Z,16.25
2022-09-15T13:11:25.665Z,16.33
2022-09-15T13:14:15.140Z,16.49
2022-09-15T13:16:44.006Z,16.61
2022-09-15T13:19:20.415Z,16.73
2022-09-15T13:22:13.338Z,16.72
2022-09-15T13:25:10.878Z,16.71
2022-09-15T13:27:54.190Z,16.75
2022-09-15T13:30:20.702Z,16.79
2022-09-15T13:33:04.895Z,16.88
2022-09-15T13:35:40.985Z,16.98
2022-09-15T13:38:46.960Z,17.14
2022-09-15T13:41:30.942Z,17.55
2022-09-15T13:44:26.138Z,17.54
2022-09-15T13:47:20.369Z,17.37
2022-09-15T13:50:06.191Z,17.25
2022-09-15T13:52:58.572Z,17.39
2022-09-15T13:55:28.214Z,17.48
2022-09-15T14:01:06.860Z,17.57
2022-09-15T14:03:48.283Z,17.54
2022-09-15T14:06:19.619Z,17.46
2022-09-15T14:08:51.215Z,17.38
2022-09-15T14:11:25.602Z,17.34
2022-09-15T14:13:53.684Z,17.32
2022-09-15T14:16:24.854Z,17.57
2022-09-15T14:18:54.184Z,17.84
2022-09-15T14:21:26.373Z,17.90
2022-09-15T14:23:56.351Z,18.06
2022-09-15T14:26:26.602Z,18.52
2022-09-15T14:29:03.004Z,18.49
2022-09-15T14:31:38.621Z,18.41
2022-09-15T14:34:16.203Z,18.69
2022-09-15T14:36:43.396Z,18.92
2022-09-15T14:39:20.864Z,18.88
2022-09-15T14:41:48.676Z,18.98
2022-09-15T14:47:28.282Z,18.77
2022-09-15T14:50:09.461Z,18.88
2022-09-15T14:52:40.937Z,18.93
2022-09-15T14:55:23.462Z,18.82
2022-09-15T14:58:15.997Z,18.73
2022-09-15T15:01:01.714Z,18.53
2022-09-15T15:03:59.940Z,18.77
2022-09-15T15:06:34.983Z,18.98
2022-09-15T15:09:21.536Z,19.12
2022-09-15T15:11:56.699Z,19.24
2022-09-15T15:16:52.930Z,19.23
2022-09-15T15:19:37.907Z,19.08
2022-09-15T15:22:13.602Z,18.75
2022-09-15T15:24:46.499Z,18.53
2022-09-15T15:27:35.321Z,18.31
2022-09-15T15:30:31.163Z,18.41
2022-09-15T15:33:25.580Z,18.47
2022-09-15T15:36:08.820Z,18.42
2022-09-15T15:38:42.631Z,18.27
2022-09-15T15:41:22.391Z,18.08
2022-09-15T15:44:26.601Z,18.01
2022-09-15T15:46:57.230Z,18.02
2022-09-15T15:49:29.961Z,18.03
2022-09-15T15:51:58.563Z,18.02
2022-09-15T15:54:26.800Z,17.99
2022-09-15T15:56:53.659Z,17.97
2022-09-15T15:59:20.735Z,17.95
2022-09-15T16:01:53.712Z,17.94
2022-09-15T16:04:22.050Z,17.94
2022-09-15T16:06:48.618Z,17.97
2022-09-15T16:09:17.539Z,17.99
2022-09-15T16:11:44.151Z,18.01
2022-09-15T16:14:13.735Z,17.99
2022-09-15T16:16:41.108Z,17.97
2022-09-15T16:19:09.081Z,17.95
2022-09-15T16:21:39.834Z,17.94
2022-09-15T16:24:11.162Z,17.96
2022-09-15T16:26:39.365Z,17.90
2022-09-15T16:29:06.836Z,17.85
2022-09-15T16:31:35.279Z,17.76
2022-09-15T16:34:03.632Z,17.69
2022-09-15T16:36:34.002Z,17.63
2022-09-15T16:39:01.021Z,17.57
2022-09-15T16:41:30.261Z,17.50
2022-09-15T16:43:56.888Z,17.45
2022-09-15T16:46:23.711Z,17.40
2022-09-15T16:48:50.606Z,17.37
2022-09-15T16:51:34.746Z,17.32
2022-09-15T16:54:01.315Z,17.29
2022-09-15T16:56:27.818Z,17.26
2022-09-15T16:59:00.161Z,17.22
2022-09-15T17:01:28.313Z,17.21
2022-09-15T17:03:56.022Z,17.17
2022-09-15T17:06:23.380Z,17.15
2022-09-15T17:08:50.146Z,17.16
2022-09-15T17:11:19.709Z,17.15
2022-09-15T17:13:46.874Z,17.13
2022-09-15T17:16:15.846Z,17.13
2022-09-15T17:18:42.406Z,17.13
2022-09-15T17:21:13.551Z,17.14
2022-09-15T17:23:43.925Z,17.13
2022-09-15T17:26:30.520Z,17.12
2022-09-15T17:28:59.520Z,17.11
2022-09-15T17:31:32.350Z,17.11
2022-09-15T17:33:59.747Z,17.12
2022-09-15T17:36:27.740Z,17.15
2022-09-15T17:38:54.219Z,17.14
2022-09-15T17:41:22.537Z,17.13
2022-09-15T17:43:49.512Z,17.10
2022-09-15T17:46:16.837Z,17.11
2022-09-15T17:48:43.447Z,17.10
2022-09-15T17:51:15.162Z,17.08
2022-09-15T17:53:42.784Z,17.08
2022-09-15T17:56:09.564Z,17.09
2022-09-15T17:58:35.998Z,17.11
2022-09-15T18:01:03.868Z,17.09
2022-09-15T18:03:34.753Z,17.06
2022-09-15T18:06:05.253Z,17.07
2022-09-15T18:08:36.006Z,17.06
2022-09-15T18:11:04.158Z,17.08
2022-09-15T18:13:31.294Z,17.10
2022-09-15T18:16:04.237Z,17.10
2022-09-15T18:18:30.764Z,17.10
2022-09-15T18:20:59.323Z,17.08
2022-09-15T18:23:28.401Z,17.09
2022-09-15T18:25:55.228Z,17.10
2022-09-15T18:28:21.671Z,17.09
2022-09-15T18:30:49.774Z,17.07
2022-09-15T18:33:24.121Z,17.06
2022-09-15T18:35:53.201Z,17.05
2022-09-15T18:38:22.532Z,17.06
2022-09-15T18:40:53.278Z,17.04
2022-09-15T18:43:20.773Z,17.04
2022-09-15T18:45:48.179Z,17.01
2022-09-15T18:48:14.646Z,16.98
2022-09-15T18:50:43.422Z,16.98
2022-09-15T18:53:10.124Z,16.98
2022-09-15T18:55:36.595Z,16.96
2022-09-15T18:58:03.014Z,16.93
2022-09-15T19:00:29.907Z,16.90
2022-09-15T19:02:58.151Z,16.88
2022-09-15T19:05:25.176Z,16.85
2022-09-15T19:07:51.548Z,16.86
2022-09-15T19:10:21.332Z,16.84
2022-09-15T19:12:47.674Z,16.82
2022-09-15T19:15:14.895Z,16.82
2022-09-15T19:17:42.443Z,16.79
2022-09-15T19:20:11.120Z,16.75
2022-09-15T19:22:37.949Z,16.70
2022-09-15T19:25:06.621Z,16.64
2022-09-15T19:27:33.529Z,16.60
2022-09-15T19:30:00.713Z,16.58
2022-09-15T19:32:27.100Z,16.58
2022-09-15T19:34:53.603Z,16.59
2022-09-15T19:37:21.320Z,16.59
2022-09-15T19:39:48.521Z,16.61
2022-09-15T19:44:47.823Z,16.60
2022-09-15T19:47:14.238Z,16.57
2022-09-15T19:49:40.646Z,16.55
2022-09-15T19:52:07.252Z,16.56
2022-09-15T19:54:34.556Z,16.55
2022-09-15T19:57:01.817Z,16.55
2022-09-15T19:59:31.726Z,16.53
2022-09-15T20:02:00.789Z,16.53
2022-09-15T20:04:28.315Z,16.50
2022-09-15T20:06:54.950Z,16.51
2022-09-15T20:09:21.323Z,16.52
2022-09-15T20:11:47.733Z,16.51
2022-09-15T20:14:16.417Z,16.50
2022-09-15T20:16:43.096Z,16.49
2022-09-15T20:19:09.556Z,16.47
2022-09-15T20:21:49.675Z,16.46
2022-09-15T20:24:17.709Z,16.41
2022-09-15T20:26:44.348Z,16.40
2022-09-15T20:29:11.444Z,16.36
2022-09-15T20:31:37.994Z,16.31
2022-09-15T20:34:04.369Z,16.26
2022-09-15T20:36:33.386Z,16.22
2022-09-15T20:39:01.447Z,16.17
2022-09-15T20:41:28.815Z,16.11
2022-09-15T20:43:55.307Z,16.07
2022-09-15T20:46:23.529Z,16.03
2022-09-15T20:48:51.445Z,16.01
2022-09-15T20:51:23.186Z,15.98
2022-09-15T20:53:52.312Z,15.95
2022-09-15T20:56:23.143Z,15.91
2022-09-15T20:58:49.525Z,15.86
2022-09-15T21:01:20.398Z,15.82
2022-09-15T21:03:47.723Z,15.80
2022-09-15T21:06:17.425Z,15.78
2022-09-15T21:08:44.713Z,15.76
2022-09-15T21:11:11.546Z,15.75
2022-09-15T21:13:40.620Z,15.76
2022-09-15T21:16:09.757Z,15.75
2022-09-15T21:18:39.415Z,15.71
2022-09-15T21:21:12.088Z,15.68
2022-09-15T21:23:42.651Z,15.67
2022-09-15T21:26:19.614Z,15.66
2022-09-15T21:28:46.199Z,15.63
2022-09-15T21:31:15.992Z,15.62
2022-09-15T21:33:44.026Z,15.60
2022-09-15T21:36:18.509Z,15.58
2022-09-15T21:38:45.097Z,15.52
2022-09-15T21:41:14.882Z,15.48
2022-09-15T21:43:43.076Z,15.46
2022-09-15T21:46:12.883Z,15.43
2022-09-15T21:48:40.096Z,15.38
2022-09-15T21:51:08.027Z,15.38
2022-09-15T21:53:37.708Z,15.37
2022-09-15T21:56:05.976Z,15.36
2022-09-15T21:58:38.942Z,15.29
2022-09-15T22:01:14.225Z,15.25
2022-09-15T22:03:42.206Z,15.22
2022-09-15T22:06:12.822Z,15.18
2022-09-15T22:08:39.932Z,15.16
2022-09-15T22:11:07.495Z,15.14
2022-09-15T22:13:36.390Z,15.11
2022-09-15T22:16:08.677Z,15.08
2022-09-15T22:18:39.887Z,15.03
2022-09-15T22:21:07.547Z,14.99
2022-09-15T22:23:34.378Z,14.98
2022-09-15T22:26:06.216Z,15.01
2022-09-15T22:28:32.864Z,15.03
2022-09-15T22:31:04.650Z,15.08
2022-09-15T22:33:31.476Z,15.04
2022-09-15T22:35:58.481Z,15.02
2022-09-15T22:38:27.307Z,15.03
2022-09-15T22:40:54.402Z,15.03
2022-09-15T22:43:21.289Z,15.03
2022-09-15T22:45:47.996Z,15.07
2022-09-15T22:48:14.412Z,15.08
2022-09-15T22:50:44.573Z,15.05
2022-09-15T22:53:12.737Z,15.05
2022-09-15T22:55:39.643Z,15.02
2022-09-15T22:58:06.780Z,15.01
2022-09-15T23:00:33.403Z,15.03
2022-09-15T23:03:00.701Z,15.06
2022-09-15T23:05:27.164Z,15.09
2022-09-15T23:07:53.544Z,15.12
2022-09-15T23:10:20.005Z,15.15
2022-09-15T23:12:46.438Z,15.15
2022-09-15T23:15:12.859Z,15.12
2022-09-15T23:17:39.477Z,15.12
2022-09-15T23:20:06.282Z,15.08
2022-09-15T23:22:32.678Z,15.05
2022-09-15T23:24:59.127Z,15.03
2022-09-15T23:27:25.580Z,15.05
2022-09-15T23:29:51.912Z,15.08
2022-09-15T23:32:18.271Z,15.08
2022-09-15T23:34:44.604Z,15.08
2022-09-15T23:37:12.025Z,15.08
2022-09-15T23:39:38.404Z,15.08
2022-09-15T23:42:04.826Z,15.04
2022-09-15T23:44:31.197Z,15.04
2022-09-15T23:46:57.625Z,15.04
2022-09-15T23:49:24.091Z,15.03
2022-09-15T23:51:50.445Z,15.04
2022-09-15T23:54:16.838Z,15.04
2022-09-15T23:56:43.330Z,15.03
2022-09-15T23:59:09.898Z,15.04
